Time;durP1;ratioP1;P1;durP2;ratioP2;P2;SDS_P1;SDS_P2;PMS_P1;PMS_P2;Temp;Humidity;BMP_temperature;BMP_pressure;BME280_temperature;BME280_humidity;BME280_pressure;Samples;Min_cycle;Max_cycle;Signal;HPM_P1;HPM_P2
2022/03/22 00:02:15;;;;;;;25.73;21.55;;;;;;;5.47;100.00;101973.41;5028748;28;20033;-58
2022/03/22 00:04:40;;;;;;;28.88;20.77;;;;;;;5.44;100.00;101978.63;5028976;28;20044;-58
2022/03/22 00:07:07;;;;;;;26.52;20.98;;;;;;;5.42;100.00;101975.16;5029556;28;20873;-58
2022/03/22 00:09:33;;;;;;;28.20;22.23;;;;;;;5.38;100.00;101966.47;5028360;28;20885;-58
2022/03/22 00:11:58;;;;;;;26.75;22.20;;;;;;;5.37;100.00;101969.97;5044023;28;20032;-58
2022/03/22 00:14:24;;;;;;;40.97;25.08;;;;;;;5.32;100.00;101965.63;5029497;28;20024;-58
2022/03/22 00:16:49;;;;;;;28.42;23.45;;;;;;;5.35;100.00;101976.03;5027863;28;20136;-58
2022/03/22 00:19:14;;;;;;;31.38;21.52;;;;;;;4.89;100.00;101905.88;5028888;28;20087;-58
2022/03/22 00:21:40;;;;;;;29.92;20.80;;;;;;;5.27;100.00;101981.31;5029018;28;20023;-58
2022/03/22 00:24:05;;;;;;;29.58;22.40;;;;;;;4.97;100.00;101932.75;5028717;28;20029;-58
2022/03/22 00:26:31;;;;;;;35.50;23.33;;;;;;;5.23;100.00;101981.31;5028996;28;20032;-58
2022/03/22 00:28:57;;;;;;;28.98;22.23;;;;;;;5.19;100.00;101980.44;5029088;28;20917;-58
2022/03/22 00:31:22;;;;;;;28.52;22.63;;;;;;;5.19;100.00;101979.56;5029851;28;20036;-58
2022/03/22 00:33:48;;;;;;;25.35;22.13;;;;;;;5.17;100.00;101982.22;5029103;28;20064;-58
2022/03/22 00:36:13;;;;;;;28.55;22.70;;;;;;;5.10;100.00;101959.66;5028708;28;20075;-58
2022/03/22 00:38:39;;;;;;;29.55;22.90;;;;;;;5.25;100.00;101979.56;5028912;28;20219;-57
2022/03/22 00:41:04;;;;;;;29.27;21.63;;;;;;;5.29;100.00;101984.75;5028619;28;20032;-58
2022/03/22 00:43:30;;;;;;;27.00;20.50;;;;;;;5.27;100.00;101983.91;5028857;28;20032;-58
2022/03/22 00:45:55;;;;;;;26.95;20.70;;;;;;;4.86;100.00;101911.09;5028681;28;20150;-58
2022/03/22 00:48:21;;;;;;;26.00;20.08;;;;;;;5.17;100.00;101971.78;5028545;28;20055;-58
2022/03/22 00:50:47;;;;;;;25.02;19.48;;;;;;;4.93;100.00;101932.78;5029602;28;20821;-58
2022/03/22 00:53:13;;;;;;;22.27;17.75;;;;;;;5.21;100.00;101983.03;5028146;28;20028;-58
2022/03/22 00:55:40;;;;;;;24.63;19.45;;;;;;;5.19;100.00;101984.78;5028826;28;20238;-58
2022/03/22 00:58:06;;;;;;;27.75;20.17;;;;;;;5.14;100.00;101990.88;5028370;28;20361;-57
2022/03/22 01:00:33;;;;;;;24.70;18.77;;;;;;;5.10;100.00;101991.75;5027663;28;20067;-58
2022/03/22 01:03:00;;;;;;;24.73;18.95;;;;;;;5.08;100.00;101988.28;5028453;28;20036;-58
2022/03/22 01:05:26;;;;;;;25.90;20.15;;;;;;;4.92;100.00;101970.97;5028584;28;20032;-58
2022/03/22 01:07:54;;;;;;;22.27;18.73;;;;;;;5.04;100.00;101983.94;5027153;28;20943;-58
2022/03/22 01:10:21;;;;;;;27.00;20.85;;;;;;;5.00;100.00;101983.97;5028336;28;20947;-58
2022/03/22 01:12:47;;;;;;;26.23;20.13;;;;;;;5.02;100.00;101990.03;5029054;28;20033;-58
2022/03/22 01:15:24;;;;;;;33.28;20.10;;;;;;;4.98;100.00;101988.31;5027402;28;20082;-58
2022/03/22 01:17:54;;;;;;;23.80;18.83;;;;;;;4.86;100.00;101967.50;5028620;28;20119;-58
2022/03/22 01:20:22;;;;;;;21.33;17.17;;;;;;;4.92;100.00;101975.31;5027293;28;20086;-58
2022/03/22 01:22:49;;;;;;;21.80;17.27;;;;;;;4.90;100.00;101997.88;5027412;28;20024;-58
2022/03/22 01:25:22;;;;;;;22.63;17.98;;;;;;;4.81;100.00;101983.13;5028812;28;20094;-58
2022/03/22 01:27:48;;;;;;;20.80;16.25;;;;;;;4.64;100.00;101964.03;5028013;28;20036;-58
2022/03/22 01:30:15;;;;;;;21.73;17.60;;;;;;;4.69;100.00;101977.94;5027408;28;20042;-57
2022/03/22 01:32:41;;;;;;;24.30;17.73;;;;;;;4.29;100.00;101925.00;5021323;28;20168;-58
2022/03/22 01:35:09;;;;;;;21.70;17.02;;;;;;;4.67;100.00;101992.66;5006922;28;20021;-58
2022/03/22 01:37:34;;;;;;;24.77;17.42;;;;;;;4.63;100.00;101988.31;5007920;28;20093;-58
2022/03/22 01:40:00;;;;;;;21.40;16.80;;;;;;;4.59;100.00;101991.81;5008738;28;20874;-58
2022/03/22 01:42:25;;;;;;;22.25;16.08;;;;;;;4.55;100.00;101990.97;5007909;28;20084;-58
2022/03/22 01:44:51;;;;;;;22.88;16.42;;;;;;;4.54;100.00;101991.81;5007615;28;20029;-58
2022/03/22 01:47:23;;;;;;;19.77;16.17;;;;;;;4.51;100.00;101984.00;5007900;28;20037;-58
2022/03/22 01:49:49;;;;;;;22.13;17.08;;;;;;;4.52;100.00;101982.28;5008123;28;20059;-58
2022/03/22 01:52:15;;;;;;;22.08;17.00;;;;;;;4.48;100.00;101972.72;5006373;28;20033;-58
2022/03/22 01:54:41;;;;;;;20.33;16.23;;;;;;;4.45;100.00;101977.94;5007150;28;20136;-58
2022/03/22 01:57:07;;;;;;;23.70;16.98;;;;;;;4.40;100.00;101971.84;5006747;28;20041;-58
2022/03/22 01:59:33;;;;;;;24.05;18.15;;;;;;;4.31;100.00;101966.66;5006975;28;20029;-58
2022/03/22 02:07:31;;;;;;;22.23;16.67;;;;;;;4.20;100.00;101971.84;5006984;28;20075;-58
2022/03/22 02:09:57;;;;;;;22.08;17.65;;;;;;;4.20;100.00;101970.97;5006335;28;20090;-58
2022/03/22 02:12:23;;;;;;;24.02;16.23;;;;;;;4.15;100.00;101967.50;5008270;28;20028;-58
2022/03/22 02:14:48;;;;;;;23.73;16.55;;;;;;;4.11;100.00;101966.63;5007741;28;20052;-58
2022/03/22 02:17:14;;;;;;;26.30;16.58;;;;;;;4.06;100.00;101958.81;5007208;28;20021;-58
2022/03/22 02:19:40;;;;;;;30.02;16.92;;;;;;;4.07;100.00;101963.16;5008594;28;20056;-57
2022/03/22 02:22:11;;;;;;;25.05;17.25;;;;;;;4.05;100.00;101962.31;5006755;28;20345;-58
2022/03/22 02:24:37;;;;;;;21.58;16.75;;;;;;;3.90;100.00;101935.38;5006589;28;20148;-58
2022/03/22 02:27:03;;;;;;;29.30;16.63;;;;;;;3.87;100.00;101946.66;5008926;28;20047;-58
2022/03/22 02:29:28;;;;;;;19.70;15.18;;;;;;;4.00;100.00;101970.94;5007597;28;20090;-58
2022/03/22 02:31:54;;;;;;;22.88;15.80;;;;;;;3.93;100.00;101959.66;5007279;28;20029;-58
2022/03/22 02:34:19;;;;;;;21.27;15.60;;;;;;;3.96;100.00;101961.41;5005687;28;20908;-58
2022/03/22 02:36:45;;;;;;;20.40;14.57;;;;;;;3.98;100.00;101964.88;5006157;28;20036;-58
2022/03/22 02:39:10;;;;;;;19.63;15.30;;;;;;;3.89;100.00;101959.63;5004920;28;20826;-58
2022/03/22 02:41:36;;;;;;;24.50;14.75;;;;;;;3.88;100.00;101958.81;5007643;28;20036;-58
2022/03/22 02:44:01;;;;;;;17.15;14.32;;;;;;;3.82;100.00;101953.56;5006087;28;20854;-58
2022/03/22 02:46:26;;;;;;;19.27;14.63;;;;;;;3.78;100.00;101957.03;5007373;28;20024;-58
2022/03/22 02:48:52;;;;;;;22.50;16.25;;;;;;;3.70;100.00;101948.34;5005895;28;20032;-58
2022/03/22 02:51:17;;;;;;;19.85;15.13;;;;;;;3.77;100.00;101962.22;5007405;28;20825;-58
2022/03/22 02:53:43;;;;;;;21.92;15.65;;;;;;;3.52;100.00;101927.50;5005848;28;20468;-58
2022/03/22 02:56:09;;;;;;;19.73;14.93;;;;;;;3.72;100.00;101963.97;5005709;28;20033;-58
2022/03/22 02:58:35;;;;;;;17.77;14.20;;;;;;;3.67;100.00;101958.75;5006158;28;20037;-58
2022/03/22 03:01:02;;;;;;;19.50;14.70;;;;;;;3.58;100.00;101954.34;5007276;28;20038;-58
2022/03/22 03:03:27;;;;;;;20.85;15.02;;;;;;;3.62;100.00;101970.84;5006080;28;20083;-58
2022/03/22 03:05:53;;;;;;;18.23;14.10;;;;;;;3.55;100.00;101961.28;5006485;28;20874;-58
2022/03/22 03:08:19;;;;;;;18.80;13.90;;;;;;;3.56;100.00;101960.41;5006473;28;20025;-58
2022/03/22 03:10:45;;;;;;;20.25;13.90;;;;;;;3.54;100.00;101959.56;5008005;28;20098;-58
2022/03/22 03:13:12;;;;;;;18.23;14.98;;;;;;;3.50;100.00;101965.59;5007290;28;20522;-58
2022/03/22 03:15:37;;;;;;;22.10;15.02;;;;;;;3.49;100.00;101966.44;5005656;28;20143;-58
2022/03/22 03:18:03;;;;;;;20.45;16.27;;;;;;;3.44;100.00;101956.06;5006190;28;20803;-58
2022/03/22 03:20:28;;;;;;;23.05;15.40;;;;;;;3.46;100.00;101958.66;5007755;28;20086;-58
2022/03/22 03:22:54;;;;;;;17.30;13.32;;;;;;;3.46;100.00;101963.84;5005484;28;20822;-58
2022/03/22 03:25:19;;;;;;;22.85;15.45;;;;;;;3.40;100.00;101964.72;5005593;28;20881;-58
2022/03/22 03:27:45;;;;;;;19.77;14.85;;;;;;;3.37;100.00;101966.41;5005817;28;20793;-58
2022/03/22 03:30:11;;;;;;;22.92;15.77;;;;;;;3.32;100.00;101970.72;5005566;28;20078;-58
2022/03/22 03:32:36;;;;;;;19.40;15.40;;;;;;;3.22;100.00;101963.72;5006897;28;20785;-58
2022/03/22 03:35:03;;;;;;;22.77;14.90;;;;;;;3.29;100.00;101973.28;5008661;28;20036;-58
2022/03/22 03:37:30;;;;;;;17.52;14.70;;;;;;;3.27;100.00;101975.03;5011582;28;20058;-58
2022/03/22 03:39:55;;;;;;;21.33;15.65;;;;;;;3.06;100.00;101947.22;5010061;28;20401;-58
2022/03/22 03:42:21;;;;;;;24.88;17.02;;;;;;;3.15;100.00;101962.84;5009873;28;20036;-58
2022/03/22 03:47:30;;;;;;;14.93;11.05;;;;;;;3.19;100.00;101972.38;5029127;28;20070;-58
2022/03/22 03:49:58;;;;;;;22.58;15.00;;;;;;;3.25;100.00;101985.41;5028924;28;20028;-58
2022/03/22 03:52:31;;;;;;;21.52;15.18;;;;;;;3.23;100.00;101986.25;5028634;28;20028;-58
2022/03/22 03:54:58;;;;;;;22.15;15.70;;;;;;;3.20;100.00;101986.25;5028832;28;20029;-58
2022/03/22 03:57:24;;;;;;;24.67;15.93;;;;;;;3.00;100.00;101957.56;5045700;28;20036;-58
2022/03/22 03:59:50;;;;;;;27.90;15.90;;;;;;;2.96;100.00;101961.88;5029101;28;20031;-58
2022/03/22 04:02:17;;;;;;;21.27;15.70;;;;;;;2.96;100.00;101976.59;5030044;28;20054;-58
2022/03/22 04:04:42;;;;;;;21.27;16.08;;;;;;;2.98;100.00;101985.22;5046695;28;20140;-58
2022/03/22 04:07:10;;;;;;;20.92;15.45;;;;;;;2.95;100.00;102006.84;5028862;28;20024;-58
2022/03/22 04:09:36;;;;;;;21.05;15.70;;;;;;;2.92;100.00;102001.66;5028361;28;20032;-58
2022/03/22 04:12:02;;;;;;;24.67;17.27;;;;;;;2.92;100.00;102000.78;5031122;28;20047;-58
2022/03/22 04:14:28;;;;;;;24.85;18.33;;;;;;;2.93;100.00;101998.22;5031160;28;20266;-58
2022/03/22 04:16:56;;;;;;;25.13;16.63;;;;;;;2.91;100.00;102002.50;5029413;28;20874;-58
2022/03/22 04:19:21;;;;;;;23.40;16.85;;;;;;;2.77;100.00;101991.16;5029012;28;20052;-58
2022/03/22 04:21:47;;;;;;;23.67;17.48;;;;;;;2.82;100.00;101997.25;5028471;28;20036;-58
2022/03/22 04:24:12;;;;;;;23.42;16.58;;;;;;;2.78;100.00;102002.41;5030295;28;20780;-58
2022/03/22 04:26:40;;;;;;;23.35;16.80;;;;;;;2.77;100.00;102014.50;5028079;28;20929;-58
2022/03/22 04:34:35;;;;;;;;;;;;;;;2.75;100.00;102007.56;5029300;28;20066;-58
2022/03/22 04:37:01;;;;;;;26.17;17.85;;;;;;;2.76;100.00;102009.31;5043623;28;19978;-58
2022/03/22 04:39:29;;;;;;;26.65;18.35;;;;;;;2.68;100.00;101998.88;5028065;28;20779;-58
2022/03/22 04:41:56;;;;;;;25.23;19.50;;;;;;;2.69;100.00;102010.13;5043550;28;20986;-58
2022/03/22 04:44:21;;;;;;;25.58;19.77;;;;;;;2.65;100.00;102003.16;5027666;28;20024;-58
2022/03/22 04:46:47;;;;;;;24.20;19.95;;;;;;;2.63;100.00;102010.97;5026820;28;20028;-58
2022/03/22 04:49:12;;;;;;;32.47;21.92;;;;;;;2.62;100.00;102027.38;5027507;28;20457;-58
2022/03/22 04:57:08;;;;;;;35.00;21.27;;;;;;;2.53;100.00;102012.56;5028762;28;20146;-58
2022/03/22 04:59:33;;;;;;;26.83;19.73;;;;;;;2.52;100.00;102021.25;5029360;28;20092;-58
2022/03/22 05:01:59;;;;;;;26.70;19.70;;;;;;;2.51;100.00;102018.63;5029903;28;20025;-58
2022/03/22 05:04:25;;;;;;;29.30;20.70;;;;;;;2.51;100.00;102029.00;5026639;28;20086;-58
2022/03/22 05:06:51;;;;;;;29.17;21.13;;;;;;;2.25;100.00;101994.19;5026920;28;20101;-59
2022/03/22 05:09:17;;;;;;;26.30;19.50;;;;;;;2.46;100.00;102026.38;5026674;28;20033;-58
2022/03/22 05:11:42;;;;;;;29.83;21.77;;;;;;;2.41;100.00;102028.03;5024951;28;20812;-58
2022/03/22 05:14:08;;;;;;;24.90;20.90;;;;;;;2.46;100.00;102030.69;5025648;28;20028;-58
2022/03/22 05:16:35;;;;;;;31.60;23.60;;;;;;;2.38;100.00;102017.66;5026276;28;20931;-58
2022/03/22 05:19:00;;;;;;;30.52;21.40;;;;;;;2.41;100.00;102034.94;5027463;28;20043;-58
2022/03/22 05:21:27;;;;;;;26.17;20.27;;;;;;;2.37;100.00;102031.47;5026016;28;20025;-58
2022/03/22 05:23:53;;;;;;;30.33;20.92;;;;;;;2.21;100.00;102005.38;5026860;28;20035;-58
2022/03/22 05:26:19;;;;;;;30.67;22.65;;;;;;;2.32;100.00;102027.97;5026528;28;20040;-58
2022/03/22 05:28:44;;;;;;;32.92;22.75;;;;;;;2.03;100.00;101988.78;5026644;28;20147;-58
2022/03/22 05:31:12;;;;;;;36.42;22.83;;;;;;;2.30;100.00;102041.78;5026390;28;20056;-58
2022/03/22 05:33:37;;;;;;;31.17;23.17;;;;;;;2.30;100.00;102040.03;5026318;28;20020;-58
2022/03/22 05:36:04;;;;;;;27.20;22.00;;;;;;;2.35;100.00;102050.47;5027929;28;20039;-58
2022/03/22 05:38:30;;;;;;;29.40;22.08;;;;;;;2.33;100.00;102045.25;5027588;28;20086;-58
2022/03/22 05:40:56;;;;;;;30.35;21.75;;;;;;;2.28;100.00;102036.56;5026687;28;20860;-58
2022/03/22 05:43:22;;;;;;;30.33;22.52;;;;;;;2.24;100.00;102037.38;5027198;28;20032;-58
2022/03/22 05:45:50;;;;;;;28.90;21.55;;;;;;;2.05;100.00;102006.94;5027173;28;20158;-58
2022/03/22 05:48:17;;;;;;;34.45;22.63;;;;;;;2.31;100.00;102046.09;5025233;28;20040;-58
2022/03/22 05:50:42;;;;;;;31.38;23.23;;;;;;;2.34;100.00;102046.13;5025864;28;20016;-58
2022/03/22 05:53:07;;;;;;;34.10;22.75;;;;;;;2.39;100.00;102054.81;5028072;28;20035;-59
2022/03/22 05:55:33;;;;;;;28.27;21.70;;;;;;;2.42;100.00;102047.06;5027369;28;20029;-58
2022/03/22 05:57:58;;;;;;;31.45;22.10;;;;;;;2.41;100.00;102035.81;5027258;28;20024;-58
2022/03/22 06:00:24;;;;;;;28.67;21.27;;;;;;;2.49;100.00;102043.69;5027240;28;20024;-58
2022/03/22 06:02:49;;;;;;;28.80;21.80;;;;;;;2.50;100.00;102043.69;5028240;28;20032;-58
2022/03/22 06:05:15;;;;;;;33.17;21.80;;;;;;;2.46;100.00;102025.50;5027022;28;20033;-58
2022/03/22 06:07:41;;;;;;;27.80;21.38;;;;;;;2.63;100.00;102043.81;5026938;28;20050;-58
2022/03/22 06:10:09;;;;;;;33.72;22.45;;;;;;;2.70;100.00;102046.47;5028358;28;20028;-58
2022/03/22 06:12:39;;;;;;;27.88;20.60;;;;;;;2.77;100.00;102027.47;5026867;28;20202;-58
2022/03/22 06:15:25;;;;;;;28.92;21.08;;;;;;;2.87;100.00;102044.84;5026907;28;20028;-58
2022/03/22 06:17:55;;;;;;;27.58;20.40;;;;;;;2.90;100.00;102031.94;5026615;28;20048;-58
2022/03/22 06:20:21;;;;;;;29.63;21.73;;;;;;;3.03;100.00;102051.06;5027053;28;20051;-58
2022/03/22 06:22:47;;;;;;;26.73;19.33;;;;;;;3.10;100.00;102042.44;5027509;28;20036;-59
2022/03/22 06:25:13;;;;;;;33.38;21.50;;;;;;;3.22;100.00;102042.53;5027907;28;20063;-58
2022/03/22 06:27:40;;;;;;;28.10;22.08;;;;;;;3.37;100.00;102046.94;5027164;28;20028;-60
2022/03/22 06:30:08;;;;;;;33.67;22.33;;;;;;;3.48;100.00;102055.69;5027351;28;20042;-58
2022/03/22 06:32:42;;;;;;;29.20;21.80;;;;;;;3.61;100.00;102049.69;5027725;28;20059;-58
2022/03/22 06:35:11;;;;;;;27.67;21.55;;;;;;;3.69;100.00;102045.38;5027198;28;20039;-58
2022/03/22 06:37:37;;;;;;;30.55;21.90;;;;;;;3.82;100.00;102052.34;5026191;28;20024;-58
2022/03/22 06:40:07;;;;;;;31.10;21.67;;;;;;;3.86;100.00;102038.50;5024561;28;20028;-58
2022/03/22 06:42:33;;;;;;;34.05;23.33;;;;;;;4.06;100.00;102057.66;5025812;28;20848;-58
2022/03/22 06:44:59;;;;;;;28.33;22.40;;;;;;;4.20;100.00;102059.41;5025723;28;20024;-58
2022/03/22 06:47:24;;;;;;;29.33;22.00;;;;;;;4.28;100.00;102055.09;5026901;28;20028;-59
2022/03/22 06:49:49;;;;;;;30.85;22.80;;;;;;;4.46;100.00;102057.75;5025733;28;20036;-58
2022/03/22 06:52:15;;;;;;;33.00;25.33;;;;;;;4.60;100.00;102058.63;5026916;28;20025;-58
2022/03/22 06:54:40;;;;;;;32.40;23.83;;;;;;;4.72;100.00;102061.25;5024967;28;20861;-58
2022/03/22 06:57:06;;;;;;;31.75;24.58;;;;;;;4.84;100.00;102049.94;5026265;28;20028;-58
2022/03/22 06:59:32;;;;;;;28.40;23.95;;;;;;;5.01;100.00;102059.50;5025372;28;20047;-58
2022/03/22 07:01:57;;;;;;;38.40;25.00;;;;;;;5.10;100.00;102049.06;5026480;28;20029;-58
2022/03/22 07:04:23;;;;;;;40.70;24.52;;;;;;;5.26;100.00;102060.34;5025436;28;20028;-58
2022/03/22 07:06:48;;;;;;;36.65;25.92;;;;;;;5.43;100.00;102062.91;5024535;28;20036;-59
2022/03/22 07:09:13;;;;;;;34.55;24.85;;;;;;;5.58;100.00;102058.50;5025706;28;20157;-58
2022/03/22 07:11:51;;;;;;;33.83;26.02;;;;;;;5.86;100.00;102063.66;5029278;28;20888;-59
2022/03/22 07:14:20;;;;;;;32.85;24.15;;;;;;;6.09;100.00;102070.50;5028928;28;20031;-59
2022/03/22 07:16:47;;;;;;;37.00;25.58;;;;;;;6.36;100.00;102066.00;5029129;28;20318;-59
2022/03/22 07:19:22;;;;;;;44.45;27.98;;;;;;;6.59;100.00;102072.81;5029734;28;20052;-58
2022/03/22 07:21:49;;;;;;;42.20;25.42;;;;;;;6.77;100.00;102070.94;5030708;28;20028;-58
2022/03/22 07:24:18;;;;;;;35.85;25.95;;;;;;;6.66;100.00;102029.25;5029705;28;20097;-59
2022/03/22 07:26:43;;;;;;;42.72;25.45;;;;;;;6.88;100.00;102036.03;5028017;28;20079;-58
2022/03/22 07:29:08;;;;;;;37.40;22.58;;;;;;;7.23;100.00;102074.94;5028130;28;20816;-58
2022/03/22 07:31:41;;;;;;;27.33;21.73;;;;;;;7.09;100.00;102017.56;5029640;28;20032;-58
2022/03/22 07:34:15;;;;;;;37.95;22.02;;;;;;;7.43;100.00;102061.66;5028758;28;20169;-58
2022/03/22 07:36:41;;;;;;;37.05;22.73;;;;;;;7.67;100.00;102082.31;5028675;28;20025;-58
2022/03/22 07:39:08;;;;;;;29.25;21.40;;;;;;;7.76;100.00;102069.13;5028888;28;20079;-58
2022/03/22 07:41:34;;;;;;;25.30;19.15;;;;;;;7.93;100.00;102080.25;5028482;28;20032;-58
2022/03/22 07:44:01;;;;;;;21.58;18.05;;;;;;;7.93;100.00;102061.06;5027949;28;20069;-58
2022/03/22 07:46:27;;;;;;;24.15;19.15;;;;;;;8.19;100.00;102083.41;5027817;28;20893;-58
2022/03/22 07:48:53;;;;;;;26.58;17.27;;;;;;;8.07;100.00;102044.31;5027132;28;20029;-58
2022/03/22 07:54:03;;;;;;;23.50;18.75;;;;;;;8.51;100.00;102074.28;5027961;28;20102;-61
2022/03/22 07:56:32;;;;;;;22.75;18.45;;;;;;;8.70;100.00;102091.44;5027376;28;20850;-58
2022/03/22 07:58:57;;;;;;;23.60;18.05;;;;;;;8.84;100.00;102094.72;5027106;28;20111;-58
2022/03/22 08:01:24;;;;;;;21.15;16.02;;;;;;;8.57;100.00;102032.25;5027679;28;20933;-58
2022/03/22 08:03:49;;;;;;;24.88;17.30;;;;;;;8.96;100.00;102078.78;5028155;28;20032;-58
2022/03/22 08:06:15;;;;;;;24.52;16.30;;;;;;;9.18;100.00;102095.91;5029807;28;20028;-58
2022/03/22 08:08:44;;;;;;;27.30;17.70;;;;;;;9.13;100.00;102068.88;5028472;28;20929;-59
2022/03/22 08:11:10;;;;;;;22.70;16.30;;;;;;;9.40;100.00;102090.25;5027454;28;20029;-58
2022/03/22 08:13:37;;;;;;;28.73;17.65;;;;;;;9.56;100.00;102102.22;5042743;28;20039;-58
2022/03/22 08:16:06;;;;;;;21.00;15.77;;;;;;;9.68;100.00;102101.97;5024124;28;20047;-58
2022/03/22 08:18:34;;;;;;;21.92;16.48;;;;;;;9.80;100.00;102098.25;5027277;28;20039;-59
2022/03/22 08:21:00;;;;;;;28.27;17.23;;;;;;;9.54;100.00;102039.25;5026922;28;20024;-58
2022/03/22 08:23:25;;;;;;;20.27;14.98;;;;;;;9.98;100.00;102101.38;5029514;28;20131;-58
2022/03/22 08:25:51;;;;;;;21.77;16.45;;;;;;;10.00;100.00;102091.72;5027577;28;20040;-58
2022/03/22 08:28:17;;;;;;;32.20;18.33;;;;;;;10.23;100.00;102102.63;5027100;28;20028;-57
2022/03/22 08:30:44;;;;;;;23.85;16.83;;;;;;;10.40;100.00;102109.28;5027381;28;20083;-58
2022/03/22 08:33:10;;;;;;;26.67;17.33;;;;;;;10.15;100.00;102046.75;5027030;28;20040;-58
2022/03/22 08:35:38;;;;;;;19.88;15.55;;;;;;;10.61;100.00;102108.81;5027609;28;20023;-59
2022/03/22 08:38:04;;;;;;;21.92;14.45;;;;;;;10.65;100.00;102094.66;5026109;28;20845;-59
2022/03/22 08:40:29;;;;;;;20.77;14.70;;;;;;;10.76;100.00;102092.66;5028644;28;20024;-58
2022/03/22 08:42:56;;;;;;;25.73;15.38;;;;;;;10.84;100.00;102085.47;5026839;28;20038;-59
2022/03/22 08:45:23;;;;;;;25.25;15.25;;;;;;;11.06;100.00;102101.56;5028191;28;20028;-58
2022/03/22 08:47:50;;;;;;;22.10;15.40;;;;;;;11.16;100.00;102092.53;5027454;28;20043;-59
2022/03/22 08:50:18;;;;;;;19.15;14.98;;;;;;;11.25;100.00;102103.69;5027385;28;20033;-59
2022/03/22 08:52:44;;;;;;;22.98;16.20;;;;;;;11.34;100.00;102099.09;5029140;28;20029;-59
2022/03/22 08:55:13;;;;;;;25.45;17.08;;;;;;;11.45;100.00;102099.69;5026374;28;20032;-58
2022/03/22 08:57:39;;;;;;;24.48;17.35;;;;;;;11.47;100.00;102100.50;5027342;28;20040;-58
2022/03/22 09:00:09;;;;;;;20.63;15.77;;;;;;;11.55;100.00;102109.09;5026731;28;20982;-59
2022/03/22 09:02:35;;;;;;;24.00;15.88;;;;;;;11.57;100.00;102096.72;5027832;28;20041;-59
2022/03/22 09:07:47;;;;;;;26.52;13.70;;;;;;;11.76;100.00;102105.91;5028461;28;20956;-58
2022/03/22 09:10:14;;;;;;;21.50;15.13;;;;;;;11.65;100.00;102047.38;5027991;28;20032;-58
2022/03/22 09:12:39;;;;;;;24.77;15.35;;;;;;;12.08;100.00;102092.66;5028918;28;20044;-59
2022/03/22 09:15:05;;;;;;;25.65;15.77;;;;;;;12.13;100.00;102096.03;5028961;28;20765;-59
2022/03/22 09:17:31;;;;;;;22.42;13.77;;;;;;;12.10;100.00;102080.31;5027906;28;20050;-59
2022/03/22 09:19:57;;;;;;;26.90;15.15;;;;;;;12.22;100.00;102077.31;5027196;28;20027;-59
2022/03/22 09:22:22;;;;;;;19.65;13.55;;;;;;;12.39;100.00;102091.75;5027749;28;20028;-58
2022/03/22 09:24:47;;;;;;;24.20;14.27;;;;;;;12.51;100.00;102092.22;5027221;28;20036;-59
2022/03/22 09:27:13;;;;;;;19.35;13.68;;;;;;;12.61;100.00;102091.03;5019184;28;20068;-58
2022/03/22 09:29:38;;;;;;;19.67;13.90;;;;;;;12.68;100.00;102087.28;5014712;28;20083;-59
2022/03/22 09:32:04;;;;;;;30.52;14.77;;;;;;;12.80;100.00;102091.34;5026137;28;20029;-58
2022/03/22 09:34:32;;;;;;;21.17;13.63;;;;;;;12.80;100.00;102083.41;5026626;28;20571;-58
2022/03/22 09:36:58;;;;;;;27.88;14.18;;;;;;;12.96;100.00;102089.03;5026618;28;20024;-59
2022/03/22 09:39:24;;;;;;;27.30;14.05;;;;;;;13.02;100.00;102084.44;5027813;28;20029;-59
2022/03/22 09:41:50;;;;;;;24.70;13.65;;;;;;;13.18;96.31;102079.56;5026597;28;20024;-59
2022/03/22 09:44:19;;;;;;;19.38;13.05;;;;;;;13.44;94.99;102087.44;5025378;28;20139;-59
2022/03/22 09:46:48;;;;;;;19.60;13.57;;;;;;;13.63;95.09;102083.22;5027079;28;20874;-58
2022/03/22 09:49:15;;;;;;;21.23;13.95;;;;;;;13.71;95.03;102082.94;5027527;28;20063;-58
2022/03/22 09:51:47;;;;;;;17.33;12.43;;;;;;;13.92;89.82;102084.81;5025944;28;20048;-59
2022/03/22 09:54:18;;;;;;;20.95;14.60;;;;;;;13.93;88.59;102049.50;5041360;28;20880;-59
2022/03/22 09:56:45;;;;;;;28.63;16.35;;;;;;;14.46;87.54;102081.00;5027267;28;20036;-59
2022/03/22 09:59:11;;;;;;;18.88;13.57;;;;;;;14.67;88.10;102080.13;5025928;28;20032;-59
2022/03/22 10:01:37;;;;;;;20.55;14.80;;;;;;;14.74;84.32;102078.97;5025672;28;20458;-59
2022/03/22 10:04:07;;;;;;;25.20;15.40;;;;;;;14.84;84.25;102072.38;5026119;28;20032;-59
2022/03/22 10:06:34;;;;;;;20.42;14.00;;;;;;;15.02;84.59;102073.41;5027255;28;20073;-59
2022/03/22 10:09:01;;;;;;;21.90;14.77;;;;;;;15.05;82.45;102066.22;5026221;28;20040;-59
2022/03/22 10:11:41;;;;;;;20.63;14.23;;;;;;;15.07;79.62;102068.81;5026932;28;20036;-59
2022/03/22 10:14:10;;;;;;;21.75;14.18;;;;;;;15.07;79.64;102064.34;5025025;28;20069;-59
2022/03/22 10:16:51;;;;;;;22.20;12.52;;;;;;;15.06;79.35;102062.66;5025879;28;20032;-59
2022/03/22 10:19:24;;;;;;;19.67;12.93;;;;;;;15.10;76.62;102058.94;5025557;28;20114;-59
2022/03/22 10:21:52;;;;;;;17.85;13.25;;;;;;;15.22;75.85;102057.53;5025854;28;20037;-59
2022/03/22 10:24:18;;;;;;;28.42;15.18;;;;;;;15.38;74.08;102065.72;5025560;28;20288;-59
2022/03/22 10:26:46;;;;;;;19.80;13.77;;;;;;;15.50;75.68;102041.34;5025456;28;20894;-59
2022/03/22 10:29:13;;;;;;;26.33;14.65;;;;;;;15.78;72.93;102049.81;5026209;28;20044;-59
2022/03/22 10:31:39;;;;;;;18.83;12.90;;;;;;;16.00;70.47;102053.19;5026734;28;20063;-59
2022/03/22 10:34:08;;;;;;;19.80;12.90;;;;;;;16.09;73.52;102052.75;5026109;28;20455;-59
2022/03/22 10:36:36;;;;;;;20.00;12.82;;;;;;;16.08;69.47;102048.41;5027407;28;20150;-59
2022/03/22 10:39:06;;;;;;;20.90;13.30;;;;;;;16.11;70.07;102053.56;5025536;28;20032;-59
2022/03/22 10:41:46;;;;;;;22.48;12.20;;;;;;;16.18;66.32;102055.00;5025959;28;20965;-59
2022/03/22 10:44:14;;;;;;;25.02;13.68;;;;;;;16.19;63.71;102047.88;5022128;28;20879;-59
2022/03/22 10:46:42;;;;;;;15.07;12.27;;;;;;;16.22;66.09;102047.75;5026746;28;20039;-59
2022/03/22 10:49:09;;;;;;;23.83;13.90;;;;;;;16.28;64.51;102048.31;5024364;28;20884;-59
2022/03/22 10:51:46;;;;;;;24.17;13.18;;;;;;;16.38;61.67;102039.91;5025683;28;20029;-59
2022/03/22 10:54:19;;;;;;;20.33;12.48;;;;;;;16.36;64.28;102003.69;5025747;28;20086;-59
2022/03/22 10:56:56;;;;;;;26.10;13.77;;;;;;;16.61;64.16;102034.38;5025912;28;20119;-59
2022/03/22 10:59:23;;;;;;;19.27;13.52;;;;;;;16.65;63.76;102030.66;5026862;28;20873;-58
2022/03/22 11:01:50;;;;;;;18.42;10.50;;;;;;;16.69;63.34;102018.94;5041987;28;20028;-59
2022/03/22 11:04:16;;;;;;;18.50;11.02;;;;;;;17.00;61.80;102036.84;5027589;28;20051;-59
2022/03/22 11:06:46;;;;;;;35.78;15.23;;;;;;;17.20;61.09;102024.25;5027755;28;20028;-59
2022/03/22 11:09:16;;;;;;;26.25;12.70;;;;;;;17.31;62.44;102011.28;5027384;28;20082;-59
2022/03/22 11:11:43;;;;;;;23.35;13.50;;;;;;;17.62;61.77;102033.59;5027230;28;20834;-59
2022/03/22 11:14:11;;;;;;;16.35;11.88;;;;;;;17.66;60.86;102032.50;5028515;28;20047;-59
2022/03/22 11:16:36;;;;;;;17.25;12.10;;;;;;;17.65;56.53;102026.34;5026563;28;20025;-58
2022/03/22 11:19:03;;;;;;;15.07;10.45;;;;;;;17.69;59.18;102032.34;5026018;28;20098;-59
2022/03/22 11:21:30;;;;;;;17.77;11.45;;;;;;;17.81;60.08;102029.03;5026356;28;20024;-59
2022/03/22 11:24:05;;;;;;;19.00;11.32;;;;;;;17.96;59.34;102025.53;5026737;28;20082;-59
2022/03/22 11:26:30;;;;;;;26.13;13.82;;;;;;;18.07;55.48;102016.97;5025052;28;20159;-59
2022/03/22 11:28:56;;;;;;;21.98;12.85;;;;;;;18.14;57.38;102016.53;5026934;28;20116;-59
2022/03/22 11:31:26;;;;;;;24.10;13.73;;;;;;;18.25;56.96;102011.47;5026426;28;20032;-59
2022/03/22 11:34:11;;;;;;;19.92;12.65;;;;;;;18.25;58.62;101984.84;5025893;28;20800;-59